createdAt,value
2022-12-14T00:00:06.786Z,57.60
2022-12-14T00:00:44.857Z,59.63
2022-12-14T00:01:18.220Z,54.42
2022-12-14T00:01:52.389Z,59.75
2022-12-14T00:02:27.338Z,59.17
2022-12-14T00:02:59.318Z,57.33
2022-12-14T00:03:31.482Z,62.20
2022-12-14T00:04:03.683Z,59.30
2022-12-14T00:04:35.604Z,60.20
2022-12-14T00:05:07.803Z,57.58
2022-12-14T00:05:39.859Z,53.38
2022-12-14T00:06:23.393Z,54.55
2022-12-14T00:06:55.546Z,55.22
2022-12-14T00:07:28.988Z,59.13
2022-12-14T00:08:01.140Z,55.80
2022-12-14T00:08:38.302Z,57.25
2022-12-14T00:09:13.582Z,50.63
2022-12-14T00:09:47.276Z,56.47
2022-12-14T00:10:19.152Z,53.15
2022-12-14T00:10:51.005Z,58.50
2022-12-14T00:11:23.720Z,57.72
2022-12-14T00:11:55.896Z,55.83
2022-12-14T00:12:27.751Z,53.42
2022-12-14T00:13:00.480Z,61.28
2022-12-14T00:13:32.689Z,52.22
2022-12-14T00:14:05.185Z,57.72
2022-12-14T00:14:37.108Z,55.03
2022-12-14T00:15:09.535Z,56.33
2022-12-14T00:15:41.752Z,54.53
2022-12-14T00:16:16.947Z,56.05
2022-12-14T00:16:48.958Z,60.92
2022-12-14T00:17:21.100Z,60.63
2022-12-14T00:17:53.092Z,52.15
2022-12-14T00:18:25.252Z,57.85
2022-12-14T00:18:59.234Z,56.03
2022-12-14T00:19:31.089Z,58.95
2022-12-14T00:20:03.203Z,57.92
2022-12-14T00:20:35.051Z,56.92
2022-12-14T00:21:09.392Z,56.10
2022-12-14T00:21:41.480Z,58.58
2022-12-14T00:22:13.292Z,65.93
2022-12-14T00:22:45.507Z,58.22
2022-12-14T00:23:17.390Z,62.05
2022-12-14T00:23:50.808Z,56.28
2022-12-14T00:24:22.633Z,61.80
2022-12-14T00:24:54.467Z,58.83
2022-12-14T00:25:26.359Z,63.08
2022-12-14T00:25:58.326Z,58.30
2022-12-14T00:26:32.520Z,53.45
2022-12-14T00:27:04.427Z,66.25
2022-12-14T00:27:36.357Z,64.18
2022-12-14T00:28:08.571Z,61.00
2022-12-14T00:28:41.107Z,60.05
2022-12-14T00:29:12.988Z,54.17
2022-12-14T00:29:45.059Z,56.58
2022-12-14T00:30:20.888Z,57.28
2022-12-14T00:30:58.867Z,56.03
2022-12-14T00:31:32.100Z,58.30
2022-12-14T00:32:04.086Z,54.80
2022-12-14T00:32:35.932Z,58.38
2022-12-14T00:33:08.086Z,64.30
2022-12-14T00:33:40.208Z,60.00
2022-12-14T00:34:12.051Z,56.15
2022-12-14T00:34:43.971Z,54.85
2022-12-14T00:35:18.460Z,58.25
2022-12-14T00:35:50.616Z,59.15
2022-12-14T00:36:23.878Z,60.58
2022-12-14T00:36:55.757Z,52.08
2022-12-14T00:37:27.612Z,59.72
2022-12-14T00:37:59.523Z,54.67
2022-12-14T00:38:31.672Z,64.50
2022-12-14T00:39:03.770Z,58.05
2022-12-14T00:39:35.653Z,59.55
2022-12-14T00:40:09.316Z,57.67
2022-12-14T00:40:41.190Z,56.83
2022-12-14T00:41:13.051Z,63.90
2022-12-14T00:41:44.939Z,57.33
2022-12-14T00:42:16.773Z,57.60
2022-12-14T00:42:48.656Z,58.25
2022-12-14T00:43:21.266Z,61.13
2022-12-14T00:43:53.608Z,61.42
2022-12-14T00:44:25.469Z,55.40
2022-12-14T00:44:57.334Z,60.20
2022-12-14T00:45:29.199Z,61.40
2022-12-14T00:46:01.332Z,61.40
2022-12-14T00:46:33.211Z,63.28
2022-12-14T00:47:05.078Z,58.95
2022-12-14T00:47:40.752Z,55.95
2022-12-14T00:48:14.270Z,57.25
2022-12-14T00:48:46.605Z,56.25
2022-12-14T00:49:18.725Z,61.35
2022-12-14T00:49:50.568Z,58.40
2022-12-14T00:50:22.561Z,63.22
2022-12-14T00:50:55.746Z,62.83
2022-12-14T00:51:27.672Z,63.85
2022-12-14T00:51:59.501Z,63.87
2022-12-14T00:52:31.341Z,62.58
2022-12-14T00:53:03.181Z,59.55
2022-12-14T00:53:34.978Z,58.65
2022-12-14T00:54:06.998Z,64.57
2022-12-14T00:54:39.187Z,59.63
2022-12-14T00:55:11.879Z,64.03
2022-12-14T00:55:49.481Z,63.38
2022-12-14T00:56:21.547Z,55.22
2022-12-14T00:56:53.373Z,58.35
2022-12-14T00:57:25.249Z,61.97
2022-12-14T00:57:57.066Z,59.13
2022-12-14T00:58:30.444Z,63.85
2022-12-14T00:59:02.820Z,67.82
2022-12-14T00:59:34.728Z,59.88
2022-12-14T01:00:07.664Z,62.03
2022-12-14T01:00:40.118Z,56.58
2022-12-14T01:01:13.795Z,68.00
2022-12-14T01:01:46.427Z,58.22
2022-12-14T01:02:21.103Z,60.33
2022-12-14T01:02:53.018Z,57.35
2022-12-14T01:03:25.209Z,61.78
2022-12-14T01:04:16.541Z,61.03
2022-12-14T01:04:48.508Z,58.83
2022-12-14T01:05:20.706Z,63.72
2022-12-14T01:05:52.670Z,58.17
2022-12-14T01:06:25.976Z,62.15
2022-12-14T01:06:57.805Z,64.35
2022-12-14T01:07:29.632Z,61.90
2022-12-14T01:08:01.559Z,60.97
2022-12-14T01:08:36.438Z,60.25
2022-12-14T01:09:08.401Z,59.13
2022-12-14T01:09:40.304Z,61.00
2022-12-14T01:10:12.621Z,59.42
2022-12-14T01:10:44.931Z,59.03
2022-12-14T01:11:17.004Z,57.95
2022-12-14T01:11:49.206Z,56.50
2022-12-14T01:12:21.060Z,58.42
2022-12-14T01:12:53.081Z,64.07
2022-12-14T01:13:25.391Z,56.97
2022-12-14T01:13:57.508Z,58.10
2022-12-14T01:14:29.378Z,58.55
2022-12-14T01:15:02.850Z,57.17
2022-12-14T01:15:35.929Z,56.10
2022-12-14T01:16:13.884Z,55.38
2022-12-14T01:16:46.178Z,59.30
2022-12-14T01:17:18.026Z,56.50
2022-12-14T01:17:52.242Z,54.38
2022-12-14T01:18:24.096Z,53.87
2022-12-14T01:18:55.949Z,57.60
2022-12-14T01:19:27.790Z,57.62
2022-12-14T01:19:59.598Z,56.65
2022-12-14T01:20:31.468Z,59.38
2022-12-14T01:21:16.784Z,56.55
2022-12-14T01:21:48.939Z,53.67
2022-12-14T01:22:20.908Z,55.55
2022-12-14T01:22:56.320Z,59.92
2022-12-14T01:23:29.010Z,59.13
2022-12-14T01:24:03.215Z,58.17
2022-12-14T01:24:35.132Z,51.40
2022-12-14T01:25:07.202Z,50.17
2022-12-14T01:25:39.125Z,56.10
2022-12-14T01:26:12.893Z,55.83
2022-12-14T01:26:44.733Z,51.47
2022-12-14T01:27:16.875Z,57.62
2022-12-14T01:27:48.715Z,56.55
2022-12-14T01:28:20.522Z,58.28
2022-12-14T01:28:56.270Z,53.20
2022-12-14T01:29:28.131Z,52.85
2022-12-14T01:30:00.036Z,59.72
2022-12-14T01:30:31.929Z,60.80
2022-12-14T01:31:15.374Z,57.88
2022-12-14T01:31:48.978Z,52.85
2022-12-14T01:32:21.380Z,62.67
2022-12-14T01:32:53.287Z,61.70
2022-12-14T01:33:25.461Z,63.83
2022-12-14T01:33:57.861Z,62.03
2022-12-14T01:34:29.718Z,53.70
2022-12-14T01:35:01.534Z,57.08
2022-12-14T01:35:33.819Z,55.70
2022-12-14T01:36:14.498Z,61.65
2022-12-14T01:36:46.331Z,55.05
2022-12-14T01:37:18.174Z,56.05
2022-12-14T01:37:50.298Z,59.83
2022-12-14T01:38:22.114Z,60.08
2022-12-14T01:38:59.866Z,59.72
2022-12-14T01:39:31.809Z,56.88
2022-12-14T01:40:04.070Z,56.65
2022-12-14T01:40:36.086Z,53.33
2022-12-14T01:41:09.672Z,52.67
2022-12-14T01:41:44.712Z,54.05
2022-12-14T01:42:16.785Z,54.40
2022-12-14T01:42:48.706Z,58.67
2022-12-14T01:43:20.819Z,56.78
2022-12-14T01:44:00.216Z,54.08
2022-12-14T01:44:32.066Z,57.05
2022-12-14T01:45:05.849Z,50.35
2022-12-14T01:45:37.776Z,51.60
2022-12-14T01:46:09.729Z,51.25
2022-12-14T01:46:56.816Z,52.22
2022-12-14T01:47:40.294Z,50.42
2022-12-14T01:48:14.207Z,55.17
2022-12-14T01:48:47.923Z,52.83
2022-12-14T01:49:33.474Z,52.92
2022-12-14T01:50:13.806Z,48.13
2022-12-14T01:50:45.947Z,53.08
2022-12-14T01:51:18.078Z,54.25
2022-12-14T01:52:03.092Z,50.92
2022-12-14T01:52:44.027Z,51.50
2022-12-14T01:53:21.317Z,53.00
2022-12-14T01:53:55.231Z,48.85
2022-12-14T01:54:31.964Z,48.30
2022-12-14T01:55:03.757Z,54.25
2022-12-14T01:55:50.532Z,51.92
2022-12-14T01:56:22.423Z,47.47
2022-12-14T01:56:55.132Z,52.55
2022-12-14T01:57:43.623Z,48.65
2022-12-14T01:58:26.820Z,50.28
2022-12-14T01:59:02.959Z,51.63
2022-12-14T01:59:39.510Z,44.60
2022-12-14T02:00:16.905Z,48.97
2022-12-14T02:00:52.988Z,53.80
2022-12-14T02:01:24.901Z,57.20
2022-12-14T02:01:58.826Z,49.28
2022-12-14T02:02:32.126Z,49.60
2022-12-14T02:03:29.677Z,55.60
2022-12-14T02:04:02.743Z,47.92
2022-12-14T02:04:38.212Z,58.05
2022-12-14T02:05:11.154Z,53.22
2022-12-14T02:05:48.385Z,54.50
2022-12-14T02:06:28.518Z,59.33
2022-12-14T02:07:01.388Z,46.37
2022-12-14T02:07:34.028Z,51.30
2022-12-14T02:08:07.761Z,53.87
2022-12-14T02:08:43.366Z,48.50
2022-12-14T02:09:25.395Z,54.20
2022-12-14T02:10:02.253Z,48.13
2022-12-14T02:10:35.008Z,49.78
2022-12-14T02:11:07.553Z,57.88
2022-12-14T02:11:47.309Z,45.40
2022-12-14T02:12:25.444Z,52.10
2022-12-14T02:13:05.739Z,48.10
2022-12-14T02:13:40.665Z,51.55
2022-12-14T02:14:12.794Z,51.78
2022-12-14T02:14:45.510Z,49.55
2022-12-14T02:15:17.856Z,57.78
2022-12-14T02:15:51.101Z,51.42
2022-12-14T02:16:23.432Z,51.85
2022-12-14T02:16:57.441Z,49.97
2022-12-14T02:17:29.533Z,55.55
2022-12-14T02:18:04.739Z,57.80
2022-12-14T02:18:36.667Z,50.30
2022-12-14T02:19:08.488Z,53.95
2022-12-14T02:19:44.579Z,56.20
2022-12-14T02:20:21.699Z,48.22
2022-12-14T02:21:21.557Z,52.95
2022-12-14T02:22:06.426Z,55.03
2022-12-14T02:22:56.486Z,50.00
2022-12-14T02:23:56.226Z,51.40
2022-12-14T02:24:49.268Z,48.97
2022-12-14T02:25:36.073Z,47.10
2022-12-14T02:26:22.880Z,49.13
2022-12-14T02:27:10.389Z,48.30
2022-12-14T02:28:12.947Z,53.20
2022-12-14T02:29:03.549Z,50.60
2022-12-14T02:29:38.031Z,53.85
2022-12-14T02:30:16.153Z,48.08
2022-12-14T02:31:09.485Z,59.05
2022-12-14T02:31:53.141Z,49.70
2022-12-14T02:33:02.279Z,51.53
2022-12-14T02:34:16.171Z,45.45
2022-12-14T02:34:59.451Z,47.30
2022-12-14T02:35:59.586Z,47.03
2022-12-14T02:36:40.267Z,53.38
2022-12-14T02:37:25.198Z,50.85
2022-12-14T02:38:15.633Z,46.97
2022-12-14T02:39:17.883Z,51.60
2022-12-14T02:39:52.267Z,57.00
2022-12-14T02:40:38.316Z,53.33
2022-12-14T02:41:23.604Z,55.12
2022-12-14T02:42:14.924Z,50.67
2022-12-14T02:43:01.729Z,51.50
2022-12-14T02:43:53.757Z,51.60
2022-12-14T02:44:36.689Z,53.08
2022-12-14T02:45:31.529Z,54.42
2022-12-14T02:46:12.332Z,54.45
2022-12-14T02:47:45.351Z,56.75
2022-12-14T02:48:22.860Z,54.53
2022-12-14T02:48:57.471Z,53.95
2022-12-14T02:49:52.657Z,52.88
2022-12-14T02:50:27.516Z,57.33
2022-12-14T02:51:05.095Z,48.63
2022-12-14T02:51:46.193Z,48.65
2022-12-14T02:52:48.646Z,55.95
2022-12-14T02:53:31.394Z,52.55
2022-12-14T02:54:09.014Z,53.75
2022-12-14T02:54:56.099Z,56.70
2022-12-14T02:55:52.672Z,54.85
2022-12-14T02:56:37.280Z,50.53
2022-12-14T02:57:32.118Z,49.42
2022-12-14T02:58:09.007Z,49.05
2022-12-14T02:58:47.965Z,57.67
2022-12-14T02:59:20.509Z,54.63
2022-12-14T02:59:56.768Z,54.92
2022-12-14T03:00:32.398Z,53.87
2022-12-14T03:01:05.245Z,56.53
2022-12-14T03:01:39.660Z,47.42
2022-12-14T03:02:14.410Z,52.45
2022-12-14T03:02:49.256Z,51.22
2022-12-14T03:03:21.587Z,57.42
2022-12-14T03:03:53.539Z,54.78
2022-12-14T03:04:25.469Z,56.47
2022-12-14T03:04:58.462Z,57.40
2022-12-14T03:05:30.515Z,55.15
2022-12-14T03:06:14.523Z,48.85
2022-12-14T03:07:26.766Z,52.65
2022-12-14T03:08:06.540Z,51.72
2022-12-14T03:08:38.370Z,53.75
2022-12-14T03:09:17.953Z,52.35
2022-12-14T03:09:49.832Z,48.58
2022-12-14T03:10:28.123Z,49.60
2022-12-14T03:11:06.486Z,54.67
2022-12-14T03:12:05.795Z,55.45
2022-12-14T03:12:43.066Z,48.20
2022-12-14T03:13:24.547Z,54.95
2022-12-14T03:14:04.678Z,49.53
2022-12-14T03:14:42.749Z,54.03
2022-12-14T03:15:18.545Z,52.42
2022-12-14T03:16:13.379Z,54.63
2022-12-14T03:16:50.085Z,48.63
2022-12-14T03:17:28.044Z,49.13
2022-12-14T03:18:05.798Z,49.03
2022-12-14T03:19:14.177Z,50.25
2022-12-14T03:19:51.888Z,53.47
2022-12-14T03:20:26.768Z,47.92
2022-12-14T03:21:01.882Z,52.15
2022-12-14T03:21:42.968Z,51.58
2022-12-14T03:22:23.641Z,50.17
2022-12-14T03:23:05.292Z,51.03
2022-12-14T03:23:40.990Z,48.50
2022-12-14T03:24:19.628Z,55.60
2022-12-14T03:25:03.047Z,46.50
2022-12-14T03:25:43.087Z,44.45
2022-12-14T03:26:50.042Z,41.37
2022-12-14T03:27:30.992Z,51.00
2022-12-14T03:28:12.792Z,48.87
2022-12-14T03:28:51.870Z,47.25
2022-12-14T03:29:29.422Z,48.75
2022-12-14T03:30:10.732Z,43.95
2022-12-14T03:31:02.275Z,45.88
2022-12-14T03:31:48.903Z,45.78
2022-12-14T03:32:25.296Z,52.00
2022-12-14T03:33:03.915Z,45.72
2022-12-14T03:33:38.844Z,46.40
2022-12-14T03:34:14.188Z,50.75
2022-12-14T03:35:00.234Z,47.03
2022-12-14T03:35:40.103Z,48.95
2022-12-14T03:36:33.629Z,48.20
2022-12-14T03:37:16.069Z,49.50
2022-12-14T03:38:11.406Z,43.30
2022-12-14T03:38:47.739Z,44.13
2022-12-14T03:39:27.464Z,51.60
2022-12-14T03:39:59.390Z,46.17
2022-12-14T03:40:37.587Z,50.03
2022-12-14T03:41:36.566Z,47.45
2022-12-14T03:42:14.815Z,45.28
2022-12-14T03:43:04.799Z,48.20
2022-12-14T03:43:49.780Z,47.13
2022-12-14T03:44:49.609Z,44.90
2022-12-14T03:45:35.294Z,48.35
2022-12-14T03:46:21.065Z,45.05
2022-12-14T03:46:58.193Z,44.80
2022-12-14T03:47:51.460Z,44.95
2022-12-14T03:48:29.325Z,50.65
2022-12-14T03:49:15.944Z,46.88
2022-12-14T03:50:13.668Z,46.10
2022-12-14T03:50:52.430Z,45.50
2022-12-14T03:51:52.871Z,48.65
2022-12-14T03:52:40.398Z,39.45
2022-12-14T03:53:14.996Z,42.60
2022-12-14T03:54:02.671Z,46.25
2022-12-14T03:54:42.474Z,42.50
2022-12-14T03:55:48.988Z,49.85
2022-12-14T03:56:26.968Z,43.47
2022-12-14T03:57:12.317Z,51.42
2022-12-14T03:57:58.815Z,41.95
2022-12-14T03:58:56.998Z,41.05
2022-12-14T03:59:43.771Z,47.08
2022-12-14T04:00:24.557Z,42.95
2022-12-14T04:01:18.781Z,46.08
2022-12-14T04:01:59.377Z,43.05
2022-12-14T04:02:41.099Z,46.50
2022-12-14T04:03:40.950Z,45.97
2022-12-14T04:04:21.765Z,44.97
2022-12-14T04:05:57.284Z,45.20
2022-12-14T04:06:57.809Z,50.25
2022-12-14T04:07:44.738Z,41.65
2022-12-14T04:08:46.387Z,43.40
2022-12-14T04:10:25.740Z,52.15
2022-12-14T04:11:19.666Z,50.42
2022-12-14T04:12:17.177Z,50.05
2022-12-14T04:13:08.073Z,52.40
2022-12-14T04:14:06.376Z,50.10
2022-12-14T04:15:04.896Z,47.47
2022-12-14T04:15:57.794Z,50.35
2022-12-14T04:16:54.359Z,53.22
2022-12-14T04:17:51.163Z,51.78
2022-12-14T04:18:55.686Z,46.22
2022-12-14T04:19:43.321Z,49.35
2022-12-14T04:20:26.708Z,47.05
2022-12-14T04:21:05.383Z,47.08
2022-12-14T04:21:48.072Z,48.90
2022-12-14T04:22:26.006Z,46.83
2022-12-14T04:23:06.881Z,48.35
2022-12-14T04:24:03.464Z,52.35
2022-12-14T04:25:14.071Z,50.78
2022-12-14T04:26:05.482Z,46.60
2022-12-14T04:26:44.050Z,44.33
2022-12-14T04:27:39.164Z,50.97
2022-12-14T04:28:44.123Z,50.38
2022-12-14T04:29:47.067Z,47.03
2022-12-14T04:30:19.516Z,47.80
2022-12-14T04:30:51.513Z,47.53
2022-12-14T04:31:28.664Z,45.83
2022-12-14T04:32:05.952Z,47.83
2022-12-14T04:32:46.315Z,47.45
2022-12-14T04:33:37.126Z,49.13
2022-12-14T04:34:14.082Z,45.88
2022-12-14T04:34:50.919Z,43.08
2022-12-14T04:35:40.805Z,45.35
2022-12-14T04:36:18.490Z,47.92
2022-12-14T04:36:56.717Z,47.13
2022-12-14T04:37:30.675Z,47.25
2022-12-14T04:38:17.830Z,43.95
2022-12-14T04:38:56.576Z,41.72
2022-12-14T04:39:43.498Z,47.92
2022-12-14T04:40:21.744Z,49.70
2022-12-14T04:41:01.090Z,44.53
2022-12-14T04:41:37.448Z,47.15
2022-12-14T04:42:13.496Z,48.97
2022-12-14T04:42:52.616Z,51.80
2022-12-14T04:43:29.705Z,46.13
2022-12-14T04:44:13.628Z,50.28
2022-12-14T04:44:56.480Z,43.60
2022-12-14T04:45:33.437Z,43.40
2022-12-14T04:46:11.611Z,43.42
2022-12-14T04:46:44.435Z,39.53
2022-12-14T04:47:18.092Z,44.22
2022-12-14T04:47:59.866Z,43.65
2022-12-14T04:48:40.991Z,46.95
2022-12-14T04:49:25.867Z,41.20
2022-12-14T04:50:06.223Z,38.83
2022-12-14T04:50:46.459Z,45.95
2022-12-14T04:51:34.561Z,39.80
2022-12-14T04:52:11.208Z,42.30
2022-12-14T04:52:48.324Z,42.65
2022-12-14T04:53:27.014Z,43.40
2022-12-14T04:54:25.161Z,44.17
2022-12-14T04:55:23.713Z,38.03
2022-12-14T04:56:24.008Z,39.97
2022-12-14T04:57:18.933Z,41.10
2022-12-14T04:58:00.345Z,39.95
2022-12-14T04:58:34.096Z,42.40
2022-12-14T04:59:07.519Z,40.20
2022-12-14T04:59:39.666Z,42.03
2022-12-14T05:00:13.363Z,41.47
2022-12-14T05:00:58.378Z,44.42
2022-12-14T05:01:39.404Z,37.67
2022-12-14T05:02:22.848Z,39.92
2022-12-14T05:03:26.646Z,41.03
2022-12-14T05:04:08.197Z,37.28
2022-12-14T05:04:55.332Z,40.47
2022-12-14T05:05:42.620Z,37.35
2022-12-14T05:06:20.140Z,40.33
2022-12-14T05:07:22.429Z,39.42
2022-12-14T05:08:02.636Z,40.75
2022-12-14T05:08:34.413Z,37.83
2022-12-14T05:09:08.862Z,38.25
2022-12-14T05:09:55.451Z,41.63
2022-12-14T05:10:47.666Z,40.42
2022-12-14T05:11:52.671Z,38.72
2022-12-14T05:12:57.812Z,35.75
2022-12-14T05:13:42.257Z,41.00
2022-12-14T05:14:22.621Z,40.33
2022-12-14T05:15:06.532Z,41.70
2022-12-14T05:15:49.251Z,34.47
2022-12-14T05:16:23.873Z,38.33
2022-12-14T05:16:56.151Z,37.60
2022-12-14T05:17:28.336Z,37.65
2022-12-14T05:18:04.952Z,39.70
2022-12-14T05:18:37.084Z,39.53
2022-12-14T05:19:09.935Z,41.70
2022-12-14T05:19:48.563Z,40.42
2022-12-14T05:20:23.427Z,39.28
2022-12-14T05:20:55.618Z,36.58
2022-12-14T05:21:46.477Z,38.45
2022-12-14T05:22:18.514Z,35.58
2022-12-14T05:22:50.794Z,38.08
2022-12-14T05:23:22.710Z,39.92
2022-12-14T05:23:54.562Z,46.72
2022-12-14T05:24:26.408Z,35.30
2022-12-14T05:24:58.286Z,35.80
2022-12-14T05:25:30.189Z,36.85
2022-12-14T05:26:02.327Z,36.60
2022-12-14T05:26:34.367Z,42.25
2022-12-14T05:27:06.284Z,37.17
2022-12-14T05:27:38.562Z,32.25
2022-12-14T05:28:11.454Z,38.83
2022-12-14T05:28:47.280Z,40.50
2022-12-14T05:29:22.170Z,36.90
2022-12-14T05:29:54.014Z,36.78
2022-12-14T05:30:25.954Z,41.13
2022-12-14T05:30:57.856Z,36.42
2022-12-14T05:31:30.157Z,49.72
2022-12-14T05:32:02.677Z,58.33
2022-12-14T05:32:34.633Z,43.17
2022-12-14T05:33:06.505Z,43.35
2022-12-14T05:33:38.439Z,49.50
2022-12-14T05:34:10.290Z,42.70
2022-12-14T05:34:42.254Z,53.00
2022-12-14T05:35:14.924Z,56.88
2022-12-14T05:35:46.779Z,42.05
2022-12-14T05:36:19.662Z,39.92
2022-12-14T05:36:51.806Z,38.70
2022-12-14T05:37:23.685Z,40.25
2022-12-14T05:37:55.649Z,40.97
2022-12-14T05:38:27.506Z,37.42
2022-12-14T05:38:59.415Z,39.47
2022-12-14T05:39:31.796Z,35.85
2022-12-14T05:40:04.208Z,36.22
2022-12-14T05:40:36.051Z,39.88
2022-12-14T05:41:07.947Z,48.72
2022-12-14T05:41:39.767Z,41.13
2022-12-14T05:42:11.994Z,64.75
2022-12-14T05:42:46.155Z,79.68
2022-12-14T05:43:20.471Z,41.15
2022-12-14T05:43:52.414Z,41.58
2022-12-14T05:44:24.238Z,43.97
2022-12-14T05:44:56.101Z,34.58
2022-12-14T05:45:27.920Z,34.55
2022-12-14T05:46:01.125Z,38.72
2022-12-14T05:46:33.297Z,38.28
2022-12-14T05:47:05.515Z,32.38
2022-12-14T05:47:37.875Z,34.58
2022-12-14T05:48:09.863Z,40.88
2022-12-14T05:48:46.036Z,36.80
2022-12-14T05:49:20.715Z,32.58
2022-12-14T05:49:52.598Z,38.08
2022-12-14T05:50:24.722Z,36.80
2022-12-14T05:51:05.519Z,36.78
2022-12-14T05:51:37.347Z,37.58
2022-12-14T05:52:09.261Z,40.65
2022-12-14T05:52:41.426Z,33.25
2022-12-14T05:53:13.280Z,37.42
2022-12-14T05:53:45.152Z,34.50
2022-12-14T05:54:17.274Z,37.17
2022-12-14T05:54:49.109Z,42.20
2022-12-14T05:55:21.412Z,33.22
2022-12-14T05:55:53.279Z,38.08
2022-12-14T05:56:25.257Z,33.65
2022-12-14T05:56:57.102Z,33.35
2022-12-14T05:57:28.915Z,31.75
2022-12-14T05:58:01.385Z,34.22
2022-12-14T05:58:34.774Z,37.13
2022-12-14T05:59:06.645Z,36.80
2022-12-14T05:59:38.762Z,33.65
2022-12-14T06:00:11.175Z,34.53
2022-12-14T06:00:43.443Z,36.95
2022-12-14T06:01:19.071Z,37.90
2022-12-14T06:01:51.617Z,36.00
2022-12-14T06:02:23.711Z,34.72
2022-12-14T06:02:55.732Z,37.63
2022-12-14T06:03:29.146Z,34.50
2022-12-14T06:04:01.238Z,33.13
2022-12-14T06:04:33.286Z,28.75
2022-12-14T06:05:05.477Z,33.65
2022-12-14T06:05:37.311Z,44.40
2022-12-14T06:06:12.080Z,40.12
2022-12-14T06:06:43.979Z,44.78
2022-12-14T06:07:16.012Z,44.13
2022-12-14T06:07:47.890Z,37.13
2022-12-14T06:08:21.648Z,36.10
2022-12-14T06:08:53.503Z,37.58
2022-12-14T06:09:25.542Z,35.70
2022-12-14T06:09:57.359Z,36.80
2022-12-14T06:10:29.420Z,34.13
2022-12-14T06:11:06.019Z,37.67
2022-12-14T06:11:40.499Z,38.15
2022-12-14T06:12:12.343Z,39.22
2022-12-14T06:12:44.191Z,36.60
2022-12-14T06:13:16.099Z,50.00
2022-12-14T06:13:48.294Z,36.30
2022-12-14T06:14:21.414Z,31.58
2022-12-14T06:14:53.327Z,40.05
2022-12-14T06:15:29.403Z,33.22
2022-12-14T06:16:15.054Z,34.80
2022-12-14T06:16:47.535Z,34.75
2022-12-14T06:17:19.383Z,38.65
2022-12-14T06:17:51.204Z,37.47
2022-12-14T06:18:24.247Z,30.48
2022-12-14T06:18:58.546Z,42.83
2022-12-14T06:19:30.837Z,33.35
2022-12-14T06:20:02.685Z,43.72
2022-12-14T06:20:34.526Z,35.40
2022-12-14T06:21:06.350Z,34.55
2022-12-14T06:21:39.873Z,36.35
2022-12-14T06:22:12.023Z,35.78
2022-12-14T06:22:47.593Z,35.25
2022-12-14T06:23:19.839Z,38.80
2022-12-14T06:23:51.871Z,38.35
2022-12-14T06:24:23.908Z,40.00
2022-12-14T06:24:56.362Z,37.92
2022-12-14T06:25:28.163Z,40.22
2022-12-14T06:26:00.004Z,51.50
2022-12-14T06:26:33.825Z,51.03
2022-12-14T06:27:05.667Z,44.10
2022-12-14T06:27:37.786Z,47.45
2022-12-14T06:28:09.640Z,50.38
2022-12-14T06:28:42.069Z,43.08
2022-12-14T06:29:16.554Z,39.83
2022-12-14T06:29:48.390Z,42.03
2022-12-14T06:30:20.462Z,41.22
2022-12-14T06:30:52.320Z,41.47
2022-12-14T06:31:27.801Z,39.85
2022-12-14T06:32:01.113Z,42.60
2022-12-14T06:32:32.930Z,39.28
2022-12-14T06:33:05.073Z,41.00
2022-12-14T06:33:36.882Z,37.58
2022-12-14T06:34:09.727Z,33.78
2022-12-14T06:34:42.486Z,36.60
2022-12-14T06:35:14.505Z,33.92
2022-12-14T06:35:47.112Z,33.20
2022-12-14T06:36:33.473Z,33.60
2022-12-14T06:37:06.200Z,35.45
2022-12-14T06:37:38.105Z,35.05
2022-12-14T06:38:10.613Z,37.60
2022-12-14T06:38:43.188Z,36.00
2022-12-14T06:39:17.709Z,35.55
2022-12-14T06:39:54.146Z,34.00
2022-12-14T06:40:26.321Z,34.83
2022-12-14T06:40:58.154Z,35.65
2022-12-14T06:41:30.050Z,36.47
2022-12-14T06:42:01.930Z,43.95
2022-12-14T06:42:33.755Z,37.10
2022-12-14T06:43:05.981Z,33.92
2022-12-14T06:43:38.236Z,32.80
2022-12-14T06:44:13.509Z,38.22
2022-12-14T06:44:45.411Z,38.13
2022-12-14T06:45:17.220Z,34.55
2022-12-14T06:45:49.107Z,36.55
2022-12-14T06:46:24.736Z,37.05
2022-12-14T06:46:56.707Z,39.22
2022-12-14T06:47:28.763Z,38.63
2022-12-14T06:48:00.637Z,35.75
2022-12-14T06:48:32.499Z,38.90
2022-12-14T06:49:06.276Z,36.72
2022-12-14T06:49:38.084Z,35.53
2022-12-14T06:50:10.168Z,37.40
2022-12-14T06:50:41.983Z,39.03
2022-12-14T06:51:13.809Z,36.45
2022-12-14T06:51:45.979Z,41.13
2022-12-14T06:52:21.974Z,38.30
2022-12-14T06:52:57.126Z,37.63
2022-12-14T06:53:29.326Z,37.55
2022-12-14T06:54:01.543Z,39.42
2022-12-14T06:54:33.690Z,36.78
2022-12-14T06:55:06.698Z,40.22
2022-12-14T06:55:38.531Z,43.53
2022-12-14T06:56:13.365Z,37.30
2022-12-14T06:56:47.319Z,39.75
2022-12-14T06:57:19.153Z,37.85
2022-12-14T06:57:51.735Z,37.58
2022-12-14T06:58:26.798Z,35.80
2022-12-14T06:59:01.347Z,41.28
2022-12-14T06:59:33.548Z,38.58
2022-12-14T07:00:05.871Z,38.75
2022-12-14T07:00:37.927Z,35.35
2022-12-14T07:01:16.151Z,40.20
2022-12-14T07:01:49.768Z,38.35
2022-12-14T07:02:22.496Z,37.25
2022-12-14T07:02:54.607Z,35.83
2022-12-14T07:03:27.048Z,38.47
2022-12-14T07:03:59.713Z,40.85
2022-12-14T07:04:31.568Z,37.80
2022-12-14T07:05:04.685Z,32.85
2022-12-14T07:05:36.780Z,38.15
2022-12-14T07:06:09.690Z,38.00
2022-12-14T07:06:41.581Z,37.10
2022-12-14T07:07:13.450Z,32.40
2022-12-14T07:07:45.352Z,34.53
2022-12-14T07:08:17.204Z,39.08
2022-12-14T07:08:50.055Z,37.13
2022-12-14T07:09:22.015Z,36.92
2022-12-14T07:09:53.871Z,33.22
2022-12-14T07:10:26.049Z,37.72
2022-12-14T07:11:02.583Z,44.72
2022-12-14T07:11:34.651Z,35.80
2022-12-14T07:12:06.718Z,37.63
2022-12-14T07:12:38.867Z,32.08
2022-12-14T07:13:10.741Z,41.75
2022-12-14T07:13:43.486Z,40.10
2022-12-14T07:14:17.474Z,37.38
2022-12-14T07:14:49.319Z,31.62
2022-12-14T07:15:21.231Z,37.55
2022-12-14T07:15:55.227Z,36.85
2022-12-14T07:16:29.474Z,45.45
2022-12-14T07:17:01.469Z,33.58
2022-12-14T07:17:36.300Z,41.75
2022-12-14T07:18:08.228Z,37.03
2022-12-14T07:18:40.116Z,42.92
2022-12-14T07:19:12.021Z,62.78
2022-12-14T07:19:43.948Z,45.92
2022-12-14T07:20:15.936Z,72.95
2022-12-14T07:21:04.874Z,73.12
2022-12-14T07:21:37.032Z,61.58
2022-12-14T07:22:08.894Z,43.92
2022-12-14T07:22:40.801Z,50.47
2022-12-14T07:23:12.786Z,41.58
2022-12-14T07:23:46.755Z,47.13
2022-12-14T07:24:18.627Z,39.85
2022-12-14T07:24:50.462Z,42.15
2022-12-14T07:25:22.289Z,40.63
2022-12-14T07:25:54.182Z,41.58
2022-12-14T07:26:27.616Z,40.15
2022-12-14T07:27:00.432Z,43.38
2022-12-14T07:27:32.624Z,43.60
2022-12-14T07:28:05.776Z,45.70
2022-12-14T07:28:38.940Z,45.80
2022-12-14T07:29:12.132Z,50.72
2022-12-14T07:29:44.994Z,48.40
2022-12-14T07:30:16.867Z,51.13
2022-12-14T07:30:48.781Z,44.30
2022-12-14T07:31:26.830Z,55.78
2022-12-14T07:31:59.614Z,58.60
2022-12-14T07:32:31.472Z,53.05
2022-12-14T07:33:03.339Z,46.13
2022-12-14T07:33:35.273Z,47.50
2022-12-14T07:34:07.169Z,42.35
2022-12-14T07:34:39.047Z,54.63
2022-12-14T07:35:16.356Z,43.03
2022-12-14T07:35:48.626Z,50.05
2022-12-14T07:36:21.207Z,48.05
2022-12-14T07:36:53.874Z,37.63
2022-12-14T07:37:26.025Z,45.92
2022-12-14T07:37:57.868Z,45.33
2022-12-14T07:38:29.800Z,38.30
2022-12-14T07:39:01.623Z,46.33
2022-12-14T07:39:33.506Z,42.20
2022-12-14T07:40:05.932Z,40.95
2022-12-14T07:40:37.774Z,39.20
2022-12-14T07:41:22.277Z,41.20
2022-12-14T07:41:54.786Z,29.27
2022-12-14T07:42:26.938Z,36.85
2022-12-14T07:42:58.785Z,33.33
2022-12-14T07:43:31.012Z,40.03
2022-12-14T07:44:03.091Z,39.42
2022-12-14T07:44:34.957Z,36.35
2022-12-14T07:45:07.105Z,35.85
2022-12-14T07:45:38.950Z,34.85
2022-12-14T07:46:14.271Z,34.67
2022-12-14T07:46:46.175Z,34.45
2022-12-14T07:47:18.239Z,37.65
2022-12-14T07:47:50.421Z,36.35
2022-12-14T07:48:22.259Z,34.22
2022-12-14T07:48:56.323Z,40.95
2022-12-14T07:49:28.152Z,36.17
2022-12-14T07:49:59.990Z,35.42
2022-12-14T07:50:32.334Z,37.10
2022-12-14T07:51:10.128Z,28.90
2022-12-14T07:51:44.072Z,37.50
2022-12-14T07:52:16.767Z,33.20
2022-12-14T07:52:48.648Z,31.05
2022-12-14T07:53:20.941Z,32.05
2022-12-14T07:53:53.040Z,34.85
2022-12-14T07:54:26.373Z,33.80
2022-12-14T07:54:58.290Z,35.58
2022-12-14T07:55:30.281Z,34.80
2022-12-14T07:56:07.919Z,32.88